sensor_id;sensor_type;location;lat;lon;timestamp;P1;durP1;ratioP1;P2;durP2;ratioP2
33738;SDS011;20063;51.730;11.110;2024-01-15T00:02:00;7.43;;;5.35;;
33738;SDS011;20063;51.730;11.110;2024-01-15T00:04:25;8.00;;;5.63;;
33738;SDS011;20063;51.730;11.110;2024-01-15T00:06:52;8.40;;;5.57;;
33738;SDS011;20063;51.730;11.110;2024-01-15T00:09:18;8.48;;;5.68;;
33738;SDS011;20063;51.730;11.110;2024-01-15T00:11:43;10.07;;;5.97;;
33738;SDS011;20063;51.730;11.110;2024-01-15T00:14:09;8.60;;;5.97;;
33738;SDS011;20063;51.730;11.110;2024-01-15T00:16:35;11.80;;;7.00;;
33738;SDS011;20063;51.730;11.110;2024-01-15T00:19:02;8.32;;;6.00;;
33738;SDS011;20063;51.730;11.110;2024-01-15T00:21:28;11.65;;;6.38;;
33738;SDS011;20063;51.730;11.110;2024-01-15T00:23:54;10.10;;;6.55;;
33738;SDS011;20063;51.730;11.110;2024-01-15T00:26:20;10.80;;;6.53;;
33738;SDS011;20063;51.730;11.110;2024-01-15T00:28:45;15.77;;;7.95;;
33738;SDS011;20063;51.730;11.110;2024-01-15T00:31:11;8.02;;;5.50;;
33738;SDS011;20063;51.730;11.110;2024-01-15T00:33:37;14.27;;;9.02;;
33738;SDS011;20063;51.730;11.110;2024-01-15T00:36:02;11.65;;;6.88;;
33738;SDS011;20063;51.730;11.110;2024-01-15T00:38:28;9.02;;;6.68;;
33738;SDS011;20063;51.730;11.110;2024-01-15T00:40:54;9.05;;;5.78;;
33738;SDS011;20063;51.730;11.110;2024-01-15T00:43:20;7.00;;;5.45;;
33738;SDS011;20063;51.730;11.110;2024-01-15T00:45:46;11.73;;;5.82;;
33738;SDS011;20063;51.730;11.110;2024-01-15T00:48:11;9.38;;;6.03;;
33738;SDS011;20063;51.730;11.110;2024-01-15T00:50:37;9.60;;;6.35;;
33738;SDS011;20063;51.730;11.110;2024-01-15T00:53:03;11.02;;;5.97;;
33738;SDS011;20063;51.730;11.110;2024-01-15T00:55:29;9.35;;;7.07;;
33738;SDS011;20063;51.730;11.110;2024-01-15T00:57:54;12.65;;;6.47;;
33738;SDS011;20063;51.730;11.110;2024-01-15T01:00:20;7.45;;;5.88;;
33738;SDS011;20063;51.730;11.110;2024-01-15T01:02:47;8.70;;;5.88;;
33738;SDS011;20063;51.730;11.110;2024-01-15T01:05:13;8.38;;;6.15;;
33738;SDS011;20063;51.730;11.110;2024-01-15T01:07:39;10.88;;;6.82;;
33738;SDS011;20063;51.730;11.110;2024-01-15T01:10:04;7.00;;;5.43;;
33738;SDS011;20063;51.730;11.110;2024-01-15T01:12:31;6.65;;;5.45;;
33738;SDS011;20063;51.730;11.110;2024-01-15T01:14:57;8.02;;;5.85;;
33738;SDS011;20063;51.730;11.110;2024-01-15T01:17:23;6.68;;;5.25;;
33738;SDS011;20063;51.730;11.110;2024-01-15T01:19:49;11.23;;;6.05;;
33738;SDS011;20063;51.730;11.110;2024-01-15T01:22:15;7.88;;;6.22;;
33738;SDS011;20063;51.730;11.110;2024-01-15T01:24:41;12.07;;;5.82;;
33738;SDS011;20063;51.730;11.110;2024-01-15T01:27:08;8.50;;;5.72;;
33738;SDS011;20063;51.730;11.110;2024-01-15T01:29:33;7.70;;;5.82;;
33738;SDS011;20063;51.730;11.110;2024-01-15T01:31:59;9.07;;;5.82;;
33738;SDS011;20063;51.730;11.110;2024-01-15T01:34:25;9.90;;;6.35;;
33738;SDS011;20063;51.730;11.110;2024-01-15T01:36:51;7.65;;;5.75;;
33738;SDS011;20063;51.730;11.110;2024-01-15T01:39:16;10.73;;;6.65;;
33738;SDS011;20063;51.730;11.110;2024-01-15T01:41:42;10.55;;;6.28;;
33738;SDS011;20063;51.730;11.110;2024-01-15T01:44:08;8.23;;;5.97;;
33738;SDS011;20063;51.730;11.110;2024-01-15T01:46:35;7.93;;;5.43;;
33738;SDS011;20063;51.730;11.110;2024-01-15T01:49:06;7.03;;;5.28;;
33738;SDS011;20063;51.730;11.110;2024-01-15T01:51:38;8.23;;;4.78;;
33738;SDS011;20063;51.730;11.110;2024-01-15T01:54:04;8.57;;;5.05;;
33738;SDS011;20063;51.730;11.110;2024-01-15T01:56:34;8.10;;;5.47;;
33738;SDS011;20063;51.730;11.110;2024-01-15T01:59:00;6.68;;;5.03;;
33738;SDS011;20063;51.730;11.110;2024-01-15T02:01:29;6.57;;;5.22;;
33738;SDS011;20063;51.730;11.110;2024-01-15T02:03:56;9.43;;;5.30;;
33738;SDS011;20063;51.730;11.110;2024-01-15T02:06:23;8.85;;;5.25;;
33738;SDS011;20063;51.730;11.110;2024-01-15T02:08:49;7.63;;;5.78;;
33738;SDS011;20063;51.730;11.110;2024-01-15T02:11:15;6.65;;;5.05;;
33738;SDS011;20063;51.730;11.110;2024-01-15T02:13:40;9.10;;;5.65;;
33738;SDS011;20063;51.730;11.110;2024-01-15T02:16:06;7.57;;;5.70;;
33738;SDS011;20063;51.730;11.110;2024-01-15T02:18:44;7.97;;;5.32;;
33738;SDS011;20063;51.730;11.110;2024-01-15T02:21:11;8.90;;;5.47;;
33738;SDS011;20063;51.730;11.110;2024-01-15T02:23:39;10.30;;;5.90;;
33738;SDS011;20063;51.730;11.110;2024-01-15T02:26:05;13.95;;;6.30;;
33738;SDS011;20063;51.730;11.110;2024-01-15T02:28:31;8.88;;;6.07;;
33738;SDS011;20063;51.730;11.110;2024-01-15T02:30:58;9.70;;;6.05;;
33738;SDS011;20063;51.730;11.110;2024-01-15T02:33:27;7.25;;;5.20;;
33738;SDS011;20063;51.730;11.110;2024-01-15T02:35:53;12.40;;;5.45;;
33738;SDS011;20063;51.730;11.110;2024-01-15T02:38:19;11.63;;;5.65;;
33738;SDS011;20063;51.730;11.110;2024-01-15T02:40:45;9.30;;;5.43;;
33738;SDS011;20063;51.730;11.110;2024-01-15T02:43:12;7.13;;;3.67;;
33738;SDS011;20063;51.730;11.110;2024-01-15T02:45:38;6.50;;;4.05;;
33738;SDS011;20063;51.730;11.110;2024-01-15T02:48:04;13.85;;;4.85;;
33738;SDS011;20063;51.730;11.110;2024-01-15T02:50:30;7.82;;;3.90;;
33738;SDS011;20063;51.730;11.110;2024-01-15T02:52:56;11.55;;;4.57;;
33738;SDS011;20063;51.730;11.110;2024-01-15T02:55:21;9.10;;;4.47;;
33738;SDS011;20063;51.730;11.110;2024-01-15T02:57:48;7.18;;;4.03;;
33738;SDS011;20063;51.730;11.110;2024-01-15T03:00:14;9.30;;;3.85;;
33738;SDS011;20063;51.730;11.110;2024-01-15T03:02:40;7.13;;;4.25;;
33738;SDS011;20063;51.730;11.110;2024-01-15T03:05:08;11.05;;;4.40;;
33738;SDS011;20063;51.730;11.110;2024-01-15T03:07:34;10.18;;;4.47;;
33738;SDS011;20063;51.730;11.110;2024-01-15T03:10:00;10.45;;;4.55;;
33738;SDS011;20063;51.730;11.110;2024-01-15T03:12:25;8.32;;;4.35;;
33738;SDS011;20063;51.730;11.110;2024-01-15T03:14:51;10.20;;;4.88;;
33738;SDS011;20063;51.730;11.110;2024-01-15T03:17:17;12.68;;;4.05;;
33738;SDS011;20063;51.730;11.110;2024-01-15T03:19:42;7.95;;;4.63;;
33738;SDS011;20063;51.730;11.110;2024-01-15T03:22:08;7.63;;;3.97;;
33738;SDS011;20063;51.730;11.110;2024-01-15T03:24:34;9.32;;;4.55;;
33738;SDS011;20063;51.730;11.110;2024-01-15T03:27:00;6.82;;;4.43;;
33738;SDS011;20063;51.730;11.110;2024-01-15T03:29:28;9.85;;;4.88;;
33738;SDS011;20063;51.730;11.110;2024-01-15T03:31:53;12.23;;;5.10;;
33738;SDS011;20063;51.730;11.110;2024-01-15T03:34:19;10.10;;;4.72;;
33738;SDS011;20063;51.730;11.110;2024-01-15T03:36:45;7.97;;;4.72;;
33738;SDS011;20063;51.730;11.110;2024-01-15T03:39:13;13.18;;;5.22;;
33738;SDS011;20063;51.730;11.110;2024-01-15T03:41:39;8.55;;;5.05;;
33738;SDS011;20063;51.730;11.110;2024-01-15T03:44:05;24.45;;;5.30;;
33738;SDS011;20063;51.730;11.110;2024-01-15T03:46:33;10.48;;;4.55;;
33738;SDS011;20063;51.730;11.110;2024-01-15T03:48:59;10.43;;;4.22;;
33738;SDS011;20063;51.730;11.110;2024-01-15T03:51:25;14.10;;;5.63;;
33738;SDS011;20063;51.730;11.110;2024-01-15T03:53:50;14.75;;;5.13;;
33738;SDS011;20063;51.730;11.110;2024-01-15T03:56:16;9.43;;;3.50;;
33738;SDS011;20063;51.730;11.110;2024-01-15T03:58:42;8.95;;;4.93;;
33738;SDS011;20063;51.730;11.110;2024-01-15T04:01:08;22.33;;;5.90;;
33738;SDS011;20063;51.730;11.110;2024-01-15T04:03:34;12.40;;;5.43;;
33738;SDS011;20063;51.730;11.110;2024-01-15T04:06:03;18.25;;;6.05;;
33738;SDS011;20063;51.730;11.110;2024-01-15T04:08:29;18.15;;;5.50;;
33738;SDS011;20063;51.730;11.110;2024-01-15T04:10:55;14.13;;;6.18;;
33738;SDS011;20063;51.730;11.110;2024-01-15T04:13:21;21.27;;;6.28;;
33738;SDS011;20063;51.730;11.110;2024-01-15T04:15:48;19.17;;;6.13;;
33738;SDS011;20063;51.730;11.110;2024-01-15T04:18:15;11.05;;;5.63;;
33738;SDS011;20063;51.730;11.110;2024-01-15T04:20:41;30.30;;;6.95;;
33738;SDS011;20063;51.730;11.110;2024-01-15T04:23:07;22.50;;;6.45;;
33738;SDS011;20063;51.730;11.110;2024-01-15T04:25:32;21.02;;;7.45;;
33738;SDS011;20063;51.730;11.110;2024-01-15T04:27:58;14.43;;;6.10;;
33738;SDS011;20063;51.730;11.110;2024-01-15T04:30:24;23.73;;;6.18;;
33738;SDS011;20063;51.730;11.110;2024-01-15T04:32:49;18.90;;;6.22;;
33738;SDS011;20063;51.730;11.110;2024-01-15T04:35:15;19.92;;;6.00;;
33738;SDS011;20063;51.730;11.110;2024-01-15T04:37:41;17.08;;;7.43;;
33738;SDS011;20063;51.730;11.110;2024-01-15T04:40:07;11.60;;;5.55;;
33738;SDS011;20063;51.730;11.110;2024-01-15T04:42:33;13.07;;;5.00;;
33738;SDS011;20063;51.730;11.110;2024-01-15T04:44:58;26.00;;;6.78;;
33738;SDS011;20063;51.730;11.110;2024-01-15T04:47:24;19.15;;;7.03;;
33738;SDS011;20063;51.730;11.110;2024-01-15T04:49:50;13.05;;;5.32;;
33738;SDS011;20063;51.730;11.110;2024-01-15T04:52:16;14.75;;;5.85;;
33738;SDS011;20063;51.730;11.110;2024-01-15T04:54:42;17.15;;;4.80;;
33738;SDS011;20063;51.730;11.110;2024-01-15T04:57:07;9.35;;;3.58;;
33738;SDS011;20063;51.730;11.110;2024-01-15T04:59:33;13.23;;;5.43;;
33738;SDS011;20063;51.730;11.110;2024-01-15T05:01:59;9.10;;;4.97;;
33738;SDS011;20063;51.730;11.110;2024-01-15T05:04:24;12.38;;;5.28;;
33738;SDS011;20063;51.730;11.110;2024-01-15T05:06:50;6.55;;;3.53;;
33738;SDS011;20063;51.730;11.110;2024-01-15T05:09:16;10.60;;;4.85;;
33738;SDS011;20063;51.730;11.110;2024-01-15T05:11:42;14.52;;;5.35;;
33738;SDS011;20063;51.730;11.110;2024-01-15T05:14:08;13.82;;;5.13;;
33738;SDS011;20063;51.730;11.110;2024-01-15T05:16:34;14.25;;;4.95;;
33738;SDS011;20063;51.730;11.110;2024-01-15T05:19:00;16.73;;;6.22;;
33738;SDS011;20063;51.730;11.110;2024-01-15T05:21:25;13.32;;;5.88;;
33738;SDS011;20063;51.730;11.110;2024-01-15T05:23:51;14.35;;;5.88;;
33738;SDS011;20063;51.730;11.110;2024-01-15T05:26:17;11.45;;;5.85;;
33738;SDS011;20063;51.730;11.110;2024-01-15T05:28:42;12.63;;;6.00;;
33738;SDS011;20063;51.730;11.110;2024-01-15T05:31:09;8.77;;;5.13;;
33738;SDS011;20063;51.730;11.110;2024-01-15T05:33:36;11.35;;;5.88;;
33738;SDS011;20063;51.730;11.110;2024-01-15T05:36:02;8.50;;;5.07;;
33738;SDS011;20063;51.730;11.110;2024-01-15T05:38:28;10.48;;;6.00;;
33738;SDS011;20063;51.730;11.110;2024-01-15T05:40:54;15.02;;;5.07;;
33738;SDS011;20063;51.730;11.110;2024-01-15T05:43:19;12.07;;;4.60;;
33738;SDS011;20063;51.730;11.110;2024-01-15T05:45:45;15.10;;;5.88;;
33738;SDS011;20063;51.730;11.110;2024-01-15T05:48:11;17.45;;;6.28;;
33738;SDS011;20063;51.730;11.110;2024-01-15T05:50:41;12.43;;;6.35;;
33738;SDS011;20063;51.730;11.110;2024-01-15T05:53:08;9.73;;;5.03;;
33738;SDS011;20063;51.730;11.110;2024-01-15T05:55:35;16.17;;;5.75;;
33738;SDS011;20063;51.730;11.110;2024-01-15T05:58:03;13.10;;;5.00;;
33738;SDS011;20063;51.730;11.110;2024-01-15T06:00:29;9.63;;;4.72;;
33738;SDS011;20063;51.730;11.110;2024-01-15T06:02:54;11.30;;;5.13;;
33738;SDS011;20063;51.730;11.110;2024-01-15T06:05:20;12.43;;;5.15;;
33738;SDS011;20063;51.730;11.110;2024-01-15T06:07:46;10.88;;;5.97;;
33738;SDS011;20063;51.730;11.110;2024-01-15T06:10:11;15.35;;;7.32;;
33738;SDS011;20063;51.730;11.110;2024-01-15T06:12:37;13.82;;;6.93;;
33738;SDS011;20063;51.730;11.110;2024-01-15T06:15:02;14.10;;;5.68;;
33738;SDS011;20063;51.730;11.110;2024-01-15T06:17:28;15.90;;;6.03;;
33738;SDS011;20063;51.730;11.110;2024-01-15T06:19:54;10.13;;;5.78;;
33738;SDS011;20063;51.730;11.110;2024-01-15T06:22:19;20.02;;;5.90;;
33738;SDS011;20063;51.730;11.110;2024-01-15T06:24:45;9.98;;;5.00;;
33738;SDS011;20063;51.730;11.110;2024-01-15T06:27:11;11.30;;;4.88;;
33738;SDS011;20063;51.730;11.110;2024-01-15T06:29:37;17.50;;;5.93;;
33738;SDS011;20063;51.730;11.110;2024-01-15T06:32:04;11.35;;;5.13;;
33738;SDS011;20063;51.730;11.110;2024-01-15T06:34:30;14.57;;;7.05;;
33738;SDS011;20063;51.730;11.110;2024-01-15T06:36:55;18.95;;;5.85;;
33738;SDS011;20063;51.730;11.110;2024-01-15T06:39:21;18.20;;;5.78;;
33738;SDS011;20063;51.730;11.110;2024-01-15T06:41:46;13.73;;;5.65;;
33738;SDS011;20063;51.730;11.110;2024-01-15T06:44:12;8.70;;;5.30;;
33738;SDS011;20063;51.730;11.110;2024-01-15T06:46:41;16.70;;;5.60;;
33738;SDS011;20063;51.730;11.110;2024-01-15T06:49:08;14.10;;;5.40;;
33738;SDS011;20063;51.730;11.110;2024-01-15T06:51:35;10.52;;;5.03;;
33738;SDS011;20063;51.730;11.110;2024-01-15T06:54:01;12.43;;;5.65;;
33738;SDS011;20063;51.730;11.110;2024-01-15T06:56:26;13.05;;;5.43;;
33738;SDS011;20063;51.730;11.110;2024-01-15T06:58:52;16.30;;;6.28;;
33738;SDS011;20063;51.730;11.110;2024-01-15T07:01:18;17.73;;;5.95;;
33738;SDS011;20063;51.730;11.110;2024-01-15T07:03:43;14.88;;;5.80;;
33738;SDS011;20063;51.730;11.110;2024-01-15T07:06:09;11.60;;;5.65;;
33738;SDS011;20063;51.730;11.110;2024-01-15T07:08:35;12.30;;;5.63;;
33738;SDS011;20063;51.730;11.110;2024-01-15T07:11:05;11.52;;;5.63;;
33738;SDS011;20063;51.730;11.110;2024-01-15T07:13:31;14.65;;;5.97;;
33738;SDS011;20063;51.730;11.110;2024-01-15T07:15:58;16.15;;;5.32;;
33738;SDS011;20063;51.730;11.110;2024-01-15T07:18:24;11.55;;;4.65;;
33738;SDS011;20063;51.730;11.110;2024-01-15T07:20:50;13.32;;;5.88;;
33738;SDS011;20063;51.730;11.110;2024-01-15T07:23:16;14.35;;;4.00;;
33738;SDS011;20063;51.730;11.110;2024-01-15T07:25:42;15.00;;;5.13;;
33738;SDS011;20063;51.730;11.110;2024-01-15T07:28:08;9.75;;;4.78;;
33738;SDS011;20063;51.730;11.110;2024-01-15T07:30:34;12.90;;;5.45;;
33738;SDS011;20063;51.730;11.110;2024-01-15T07:33:00;11.50;;;5.18;;
33738;SDS011;20063;51.730;11.110;2024-01-15T07:35:25;17.33;;;7.80;;
33738;SDS011;20063;51.730;11.110;2024-01-15T07:37:51;10.13;;;5.43;;
33738;SDS011;20063;51.730;11.110;2024-01-15T07:40:18;9.65;;;4.78;;
33738;SDS011;20063;51.730;11.110;2024-01-15T07:42:43;13.20;;;4.63;;
33738;SDS011;20063;51.730;11.110;2024-01-15T07:45:10;10.95;;;5.03;;
33738;SDS011;20063;51.730;11.110;2024-01-15T07:47:36;11.65;;;4.90;;
33738;SDS011;20063;51.730;11.110;2024-01-15T07:50:06;16.40;;;5.13;;
33738;SDS011;20063;51.730;11.110;2024-01-15T07:52:31;12.20;;;4.90;;
33738;SDS011;20063;51.730;11.110;2024-01-15T07:54:58;11.95;;;5.28;;
33738;SDS011;20063;51.730;11.110;2024-01-15T07:57:28;16.35;;;5.20;;
33738;SDS011;20063;51.730;11.110;2024-01-15T07:59:54;11.20;;;4.97;;
33738;SDS011;20063;51.730;11.110;2024-01-15T08:02:20;10.32;;;4.65;;
33738;SDS011;20063;51.730;11.110;2024-01-15T08:04:46;8.75;;;5.15;;
33738;SDS011;20063;51.730;11.110;2024-01-15T08:07:12;9.98;;;4.97;;
33738;SDS011;20063;51.730;11.110;2024-01-15T08:09:41;14.75;;;5.63;;
33738;SDS011;20063;51.730;11.110;2024-01-15T08:12:07;7.45;;;4.93;;
33738;SDS011;20063;51.730;11.110;2024-01-15T08:14:32;8.32;;;4.97;;
33738;SDS011;20063;51.730;11.110;2024-01-15T08:16:58;13.27;;;4.68;;
33738;SDS011;20063;51.730;11.110;2024-01-15T08:19:24;10.60;;;4.97;;
33738;SDS011;20063;51.730;11.110;2024-01-15T08:21:49;10.50;;;4.60;;
33738;SDS011;20063;51.730;11.110;2024-01-15T08:24:15;8.45;;;4.68;;
33738;SDS011;20063;51.730;11.110;2024-01-15T08:26:41;7.85;;;4.55;;
33738;SDS011;20063;51.730;11.110;2024-01-15T08:29:07;8.35;;;4.78;;
33738;SDS011;20063;51.730;11.110;2024-01-15T08:31:33;6.65;;;4.18;;
33738;SDS011;20063;51.730;11.110;2024-01-15T08:33:58;14.68;;;4.80;;
33738;SDS011;20063;51.730;11.110;2024-01-15T08:36:26;12.82;;;5.75;;
33738;SDS011;20063;51.730;11.110;2024-01-15T08:38:53;12.18;;;5.38;;
33738;SDS011;20063;51.730;11.110;2024-01-15T08:41:18;13.27;;;4.80;;
33738;SDS011;20063;51.730;11.110;2024-01-15T08:43:44;11.63;;;5.60;;
33738;SDS011;20063;51.730;11.110;2024-01-15T08:46:09;8.88;;;4.30;;
33738;SDS011;20063;51.730;11.110;2024-01-15T08:48:38;7.82;;;3.72;;
33738;SDS011;20063;51.730;11.110;2024-01-15T08:51:04;12.05;;;4.72;;
33738;SDS011;20063;51.730;11.110;2024-01-15T08:53:30;8.82;;;3.83;;
33738;SDS011;20063;51.730;11.110;2024-01-15T08:55:56;6.70;;;3.90;;
33738;SDS011;20063;51.730;11.110;2024-01-15T08:58:23;8.35;;;4.22;;
33738;SDS011;20063;51.730;11.110;2024-01-15T09:00:49;9.07;;;5.00;;
33738;SDS011;20063;51.730;11.110;2024-01-15T09:03:15;13.88;;;5.45;;
33738;SDS011;20063;51.730;11.110;2024-01-15T09:05:41;7.55;;;4.20;;
33738;SDS011;20063;51.730;11.110;2024-01-15T09:08:07;6.80;;;3.85;;
33738;SDS011;20063;51.730;11.110;2024-01-15T09:10:33;8.75;;;4.60;;
33738;SDS011;20063;51.730;11.110;2024-01-15T09:12:59;7.47;;;4.30;;
33738;SDS011;20063;51.730;11.110;2024-01-15T09:15:25;11.40;;;5.55;;
33738;SDS011;20063;51.730;11.110;2024-01-15T09:17:50;6.35;;;3.05;;
33738;SDS011;20063;51.730;11.110;2024-01-15T09:20:16;8.75;;;3.83;;
33738;SDS011;20063;51.730;11.110;2024-01-15T09:22:42;6.97;;;4.22;;
33738;SDS011;20063;51.730;11.110;2024-01-15T09:25:10;16.58;;;6.70;;
33738;SDS011;20063;51.730;11.110;2024-01-15T09:27:39;9.65;;;3.47;;
33738;SDS011;20063;51.730;11.110;2024-01-15T09:30:05;5.50;;;3.45;;
33738;SDS011;20063;51.730;11.110;2024-01-15T09:32:31;4.85;;;3.22;;
33738;SDS011;20063;51.730;11.110;2024-01-15T09:34:57;5.78;;;3.03;;
33738;SDS011;20063;51.730;11.110;2024-01-15T09:37:23;15.43;;;7.85;;
33738;SDS011;20063;51.730;11.110;2024-01-15T09:39:49;18.85;;;8.75;;
33738;SDS011;20063;51.730;11.110;2024-01-15T09:42:15;6.10;;;3.47;;
33738;SDS011;20063;51.730;11.110;2024-01-15T09:44:41;5.18;;;2.75;;
33738;SDS011;20063;51.730;11.110;2024-01-15T09:47:07;5.93;;;3.58;;
33738;SDS011;20063;51.730;11.110;2024-01-15T09:49:33;3.28;;;2.20;;
33738;SDS011;20063;51.730;11.110;2024-01-15T09:51:59;4.25;;;2.70;;
33738;SDS011;20063;51.730;11.110;2024-01-15T09:54:26;9.70;;;6.00;;
33738;SDS011;20063;51.730;11.110;2024-01-15T09:56:52;5.35;;;4.35;;
33738;SDS011;20063;51.730;11.110;2024-01-15T09:59:19;14.38;;;9.25;;
33738;SDS011;20063;51.730;11.110;2024-01-15T10:01:48;3.38;;;2.67;;
33738;SDS011;20063;51.730;11.110;2024-01-15T10:04:15;6.88;;;3.80;;
33738;SDS011;20063;51.730;11.110;2024-01-15T10:06:44;5.65;;;4.65;;
33738;SDS011;20063;51.730;11.110;2024-01-15T10:09:14;4.55;;;2.75;;
33738;SDS011;20063;51.730;11.110;2024-01-15T10:11:41;4.00;;;2.90;;
33738;SDS011;20063;51.730;11.110;2024-01-15T10:14:11;6.03;;;3.35;;
33738;SDS011;20063;51.730;11.110;2024-01-15T10:16:41;5.75;;;2.67;;
33738;SDS011;20063;51.730;11.110;2024-01-15T10:19:10;2.78;;;2.55;;
33738;SDS011;20063;51.730;11.110;2024-01-15T10:21:36;4.07;;;2.78;;
33738;SDS011;20063;51.730;11.110;2024-01-15T10:24:03;7.53;;;2.88;;
33738;SDS011;20063;51.730;11.110;2024-01-15T10:26:29;6.82;;;2.63;;
33738;SDS011;20063;51.730;11.110;2024-01-15T10:28:55;4.72;;;2.67;;
33738;SDS011;20063;51.730;11.110;2024-01-15T10:31:21;3.40;;;2.20;;
33738;SDS011;20063;51.730;11.110;2024-01-15T10:33:50;2.35;;;2.15;;
33738;SDS011;20063;51.730;11.110;2024-01-15T10:36:16;5.00;;;2.17;;
33738;SDS011;20063;51.730;11.110;2024-01-15T10:38:45;3.95;;;2.13;;
33738;SDS011;20063;51.730;11.110;2024-01-15T10:41:12;7.72;;;2.45;;
33738;SDS011;20063;51.730;11.110;2024-01-15T10:43:37;2.70;;;1.80;;
33738;SDS011;20063;51.730;11.110;2024-01-15T10:46:05;4.32;;;2.53;;
33738;SDS011;20063;51.730;11.110;2024-01-15T10:48:33;3.80;;;2.60;;
33738;SDS011;20063;51.730;11.110;2024-01-15T10:51:00;3.60;;;2.20;;
33738;SDS011;20063;51.730;11.110;2024-01-15T10:53:35;3.15;;;2.72;;
33738;SDS011;20063;51.730;11.110;2024-01-15T10:56:05;4.18;;;2.55;;
33738;SDS011;20063;51.730;11.110;2024-01-15T10:58:33;4.03;;;2.63;;
33738;SDS011;20063;51.730;11.110;2024-01-15T11:00:59;4.18;;;2.70;;
33738;SDS011;20063;51.730;11.110;2024-01-15T11:03:24;7.80;;;3.05;;
33738;SDS011;20063;51.730;11.110;2024-01-15T11:05:53;8.45;;;2.72;;
33738;SDS011;20063;51.730;11.110;2024-01-15T11:08:19;7.57;;;2.97;;
33738;SDS011;20063;51.730;11.110;2024-01-15T11:10:47;10.20;;;2.72;;
33738;SDS011;20063;51.730;11.110;2024-01-15T11:18:32;7.15;;;3.08;;
33738;SDS011;20063;51.730;11.110;2024-01-15T11:23:42;6.50;;;3.15;;
33738;SDS011;20063;51.730;11.110;2024-01-15T11:29:02;9.93;;;5.55;;
33738;SDS011;20063;51.730;11.110;2024-01-15T11:34:07;3.47;;;3.15;;
33738;SDS011;20063;51.730;11.110;2024-01-15T11:42:01;5.07;;;3.42;;
33738;SDS011;20063;51.730;11.110;2024-01-15T11:44:29;8.18;;;3.00;;
33738;SDS011;20063;51.730;11.110;2024-01-15T11:47:02;9.88;;;2.85;;
33738;SDS011;20063;51.730;11.110;2024-01-15T11:52:20;6.68;;;2.75;;
33738;SDS011;20063;51.730;11.110;2024-01-15T11:54:55;10.80;;;3.17;;
33738;SDS011;20063;51.730;11.110;2024-01-15T11:57:37;4.85;;;2.63;;
33738;SDS011;20063;51.730;11.110;2024-01-15T12:00:13;3.35;;;2.47;;
33738;SDS011;20063;51.730;11.110;2024-01-15T12:02:40;6.50;;;2.72;;
33738;SDS011;20063;51.730;11.110;2024-01-15T12:05:10;2.30;;;2.10;;
33738;SDS011;20063;51.730;11.110;2024-01-15T12:07:38;3.33;;;2.00;;
33738;SDS011;20063;51.730;11.110;2024-01-15T12:10:08;3.60;;;2.20;;
33738;SDS011;20063;51.730;11.110;2024-01-15T12:12:59;2.67;;;1.92;;
33738;SDS011;20063;51.730;11.110;2024-01-15T12:15:28;1.92;;;1.70;;
33738;SDS011;20063;51.730;11.110;2024-01-15T12:17:55;2.83;;;1.90;;
33738;SDS011;20063;51.730;11.110;2024-01-15T12:20:23;5.30;;;2.47;;
33738;SDS011;20063;51.730;11.110;2024-01-15T12:22:52;3.15;;;2.95;;
33738;SDS011;20063;51.730;11.110;2024-01-15T12:25:17;4.03;;;2.13;;
33738;SDS011;20063;51.730;11.110;2024-01-15T12:27:43;4.70;;;1.95;;
33738;SDS011;20063;51.730;11.110;2024-01-15T12:30:10;1.88;;;1.70;;
33738;SDS011;20063;51.730;11.110;2024-01-15T12:32:37;2.67;;;1.90;;
33738;SDS011;20063;51.730;11.110;2024-01-15T12:35:06;2.47;;;1.80;;
33738;SDS011;20063;51.730;11.110;2024-01-15T12:37:31;3.70;;;1.95;;
33738;SDS011;20063;51.730;11.110;2024-01-15T12:39:58;20.48;;;13.23;;
33738;SDS011;20063;51.730;11.110;2024-01-15T12:42:24;29.63;;;12.50;;
33738;SDS011;20063;51.730;11.110;2024-01-15T12:44:50;21.25;;;7.60;;
33738;SDS011;20063;51.730;11.110;2024-01-15T12:47:15;1.88;;;1.70;;
33738;SDS011;20063;51.730;11.110;2024-01-15T12:49:46;4.75;;;3.50;;
33738;SDS011;20063;51.730;11.110;2024-01-15T12:52:14;6.93;;;2.78;;
33738;SDS011;20063;51.730;11.110;2024-01-15T12:54:39;7.22;;;2.25;;
33738;SDS011;20063;51.730;11.110;2024-01-15T12:57:05;3.92;;;2.60;;
33738;SDS011;20063;51.730;11.110;2024-01-15T12:59:30;4.25;;;2.78;;
33738;SDS011;20063;51.730;11.110;2024-01-15T13:01:56;3.50;;;2.83;;
33738;SDS011;20063;51.730;11.110;2024-01-15T13:04:22;5.20;;;2.83;;
33738;SDS011;20063;51.730;11.110;2024-01-15T13:06:49;6.18;;;3.10;;
33738;SDS011;20063;51.730;11.110;2024-01-15T13:09:15;5.72;;;2.92;;
33738;SDS011;20063;51.730;11.110;2024-01-15T13:11:42;6.57;;;2.45;;
33738;SDS011;20063;51.730;11.110;2024-01-15T13:14:08;4.72;;;2.83;;
33738;SDS011;20063;51.730;11.110;2024-01-15T13:16:33;7.13;;;2.42;;
33738;SDS011;20063;51.730;11.110;2024-01-15T13:18:59;12.98;;;4.07;;
33738;SDS011;20063;51.730;11.110;2024-01-15T13:21:25;4.55;;;2.58;;
33738;SDS011;20063;51.730;11.110;2024-01-15T13:23:50;6.10;;;3.42;;
33738;SDS011;20063;51.730;11.110;2024-01-15T13:26:16;4.90;;;2.88;;
33738;SDS011;20063;51.730;11.110;2024-01-15T13:28:43;15.20;;;2.95;;
33738;SDS011;20063;51.730;11.110;2024-01-15T13:31:09;6.57;;;2.95;;
33738;SDS011;20063;51.730;11.110;2024-01-15T13:33:35;8.88;;;2.38;;
33738;SDS011;20063;51.730;11.110;2024-01-15T13:36:00;8.73;;;2.95;;
33738;SDS011;20063;51.730;11.110;2024-01-15T13:38:27;8.20;;;2.90;;
33738;SDS011;20063;51.730;11.110;2024-01-15T13:40:53;2.85;;;2.58;;
33738;SDS011;20063;51.730;11.110;2024-01-15T13:43:20;8.07;;;3.33;;
33738;SDS011;20063;51.730;11.110;2024-01-15T13:45:46;10.88;;;3.03;;
33738;SDS011;20063;51.730;11.110;2024-01-15T13:48:11;9.18;;;3.53;;
33738;SDS011;20063;51.730;11.110;2024-01-15T13:50:37;14.57;;;3.70;;
33738;SDS011;20063;51.730;11.110;2024-01-15T13:53:03;9.15;;;2.83;;
33738;SDS011;20063;51.730;11.110;2024-01-15T13:55:30;5.20;;;3.40;;
33738;SDS011;20063;51.730;11.110;2024-01-15T13:57:55;12.07;;;4.82;;
33738;SDS011;20063;51.730;11.110;2024-01-15T14:00:21;8.45;;;2.75;;
33738;SDS011;20063;51.730;11.110;2024-01-15T14:02:48;7.90;;;3.20;;
33738;SDS011;20063;51.730;11.110;2024-01-15T14:05:13;11.65;;;2.88;;
33738;SDS011;20063;51.730;11.110;2024-01-15T14:07:39;4.82;;;2.55;;
33738;SDS011;20063;51.730;11.110;2024-01-15T14:10:05;9.38;;;2.88;;
33738;SDS011;20063;51.730;11.110;2024-01-15T14:12:34;6.47;;;2.92;;
33738;SDS011;20063;51.730;11.110;2024-01-15T14:15:03;14.35;;;4.35;;
33738;SDS011;20063;51.730;11.110;2024-01-15T14:17:32;3.72;;;2.25;;
33738;SDS011;20063;51.730;11.110;2024-01-15T14:19:57;4.82;;;2.55;;
33738;SDS011;20063;51.730;11.110;2024-01-15T14:22:23;10.95;;;2.70;;
33738;SDS011;20063;51.730;11.110;2024-01-15T14:24:49;8.88;;;2.88;;
33738;SDS011;20063;51.730;11.110;2024-01-15T14:27:16;8.43;;;2.50;;
33738;SDS011;20063;51.730;11.110;2024-01-15T14:29:41;9.50;;;2.47;;
33738;SDS011;20063;51.730;11.110;2024-01-15T14:32:07;17.00;;;2.60;;
33738;SDS011;20063;51.730;11.110;2024-01-15T14:34:33;10.15;;;2.88;;
33738;SDS011;20063;51.730;11.110;2024-01-15T14:37:02;8.43;;;2.20;;
33738;SDS011;20063;51.730;11.110;2024-01-15T14:39:28;8.68;;;2.30;;
33738;SDS011;20063;51.730;11.110;2024-01-15T14:41:54;11.00;;;3.53;;
33738;SDS011;20063;51.730;11.110;2024-01-15T14:44:19;6.22;;;2.97;;
33738;SDS011;20063;51.730;11.110;2024-01-15T14:46:46;6.00;;;2.30;;